Time;durP1;ratioP1;P1;durP2;ratioP2;P2;SDS_P1;SDS_P2;PMS_P1;PMS_P2;Temp;Humidity;BMP_temperature;BMP_pressure;BME280_temperature;BME280_humidity;BME280_pressure;Samples;Min_cycle;Max_cycle;Signal;HPM_P1;HPM_P2
2023/06/18 00:04:11;;;;;;;;;;;;;;;15.17;100.00;97470.59;18561311;32;19956;-57
2023/06/18 00:14:14;;;;;;;;;;;;;;;15.04;100.00;97474.94;18546876;32;19956;-57
2023/06/18 00:24:17;;;;;;;;;;;;;;;14.89;100.00;97478.78;18560743;32;20016;-57
2023/06/18 00:34:20;;;;;;;;;;;;;;;14.74;100.00;97466.28;18566110;32;20276;-57
2023/06/18 00:44:23;;;;;;;;;;;;;;;14.62;100.00;97481.47;18558750;32;19957;-57
2023/06/18 00:54:28;;;;;;;;;;;;;;;14.49;100.00;97486.59;18557613;32;20299;-57
2023/06/18 01:04:32;;;;;;;;;;;;;;;14.41;100.00;97481.84;18571906;31;19967;-57
2023/06/18 01:14:37;;;;;;;;;;;;;;;14.26;100.00;97482.91;18571384;32;19956;-58
2023/06/18 01:24:47;;;;;;;;;;;;;;;14.14;100.00;97475.25;18570595;32;20019;-58
2023/06/18 01:34:53;;;;;;;;;;;;;;;13.99;100.00;97465.44;18570485;32;19965;-57
2023/06/18 01:45:18;;;;;;;;;;;;;;;13.88;100.00;97464.78;18569314;32;19952;-57
2023/06/18 01:55:21;;;;;;;;;;;;;;;13.78;100.00;97453.28;18569113;32;20384;-57
2023/06/18 02:05:24;;;;;;;;;;;;;;;13.61;100.00;97460.03;18553939;32;19949;-58
2023/06/18 02:15:27;;;;;;;;;;;;;;;13.47;100.00;97459.97;18553578;32;19960;-58
2023/06/18 02:25:32;;;;;;;;;;;;;;;13.44;100.00;97465.19;18567224;32;20366;-58
2023/06/18 02:35:35;;;;;;;;;;;;;;;13.36;100.00;97467.47;18566731;32;19964;-58
2023/06/18 02:45:38;;;;;;;;;;;;;;;13.22;100.00;97461.94;18565842;32;19971;-58
2023/06/18 02:55:43;;;;;;;;;;;;;;;13.15;100.00;97475.03;18564667;31;19989;-58
2023/06/18 03:05:46;;;;;;;;;;;;;;;13.03;100.00;97459.19;18564875;32;19980;-58
2023/06/18 03:15:50;;;;;;;;;;;;;;;12.93;100.00;97466.66;18563836;32;19964;-58
2023/06/18 03:25:53;;;;;;;;;;;;;;;12.78;100.00;97449.44;18563499;32;20011;-58
2023/06/18 03:36:00;;;;;;;;;;;;;;;12.66;100.00;97463.44;18562567;31;19957;-58
2023/06/18 03:46:03;;;;;;;;;;;;;;;12.54;100.00;97444.03;18548644;32;19980;-58
2023/06/18 03:56:08;;;;;;;;;;;;;;;12.50;100.00;97454.66;18547198;32;19949;-58
2023/06/18 04:06:12;;;;;;;;;;;;;;;12.52;100.00;97449.72;18561435;32;19956;-57
2023/06/18 04:16:15;;;;;;;;;;;;;;;12.52;100.00;97446.22;18561094;32;20007;-58
2023/06/18 04:26:18;;;;;;;;;;;;;;;12.62;100.00;97439.87;18547287;32;19956;-58
2023/06/18 04:36:21;;;;;;;;;;;;;;;12.78;100.00;97444.00;18545832;31;20009;-58
2023/06/18 04:46:23;;;;;;;;;;;;;;;13.02;100.00;97452.12;18559871;31;19967;-58
2023/06/18 04:56:28;;;;;;;;;;;;;;;13.33;100.00;97453.63;18559867;32;19956;-58
2023/06/18 05:06:31;;;;;;;;;;;;;;;13.63;100.00;97451.59;18559677;32;19965;-58
2023/06/18 05:16:33;;;;;;;;;;;;;;;13.94;100.00;97454.63;18545452;32;19983;-58
2023/06/18 05:26:37;;;;;;;;;;;;;;;14.32;100.00;97446.38;18570910;32;19945;-58
2023/06/18 05:36:41;;;;;;;;;;;;;;;14.74;100.00;97449.16;18570044;31;20005;-58
2023/06/18 05:46:46;;;;;;;;;;;;;;;15.19;100.00;97462.13;18569362;32;20336;-58
2023/06/18 05:56:56;;;;;;;;;;;;;;;15.66;100.00;97465.41;18569214;32;19983;-58
2023/06/18 06:06:59;;;;;;;;;;;;;;;16.14;100.00;97469.47;18568451;32;20303;-58
2023/06/18 06:17:01;;;;;;;;;;;;;;;16.69;100.00;97473.81;18553602;32;20004;-58
2023/06/18 06:27:04;;;;;;;;;;;;;;;17.41;100.00;97490.09;18567205;32;19976;-58
2023/06/18 06:37:08;;;;;;;;;;;;;;;18.16;100.00;97500.09;18565295;31;20345;-58
2023/06/18 06:47:10;;;;;;;;;;;;;;;18.89;100.00;97491.88;18565833;32;19993;-58
2023/06/18 06:57:15;;;;;;;;;;;;;;;19.63;100.00;97494.34;18565060;32;19953;-58
2023/06/18 07:07:18;;;;;;;;;;;;;;;20.28;96.78;97491.22;18551124;32;19968;-58
2023/06/18 07:17:21;;;;;;;;;;;;;;;20.95;81.66;97502.97;18549461;32;19964;-58
2023/06/18 07:27:26;;;;;;;;;;;;;;;21.60;69.64;97507.78;18563434;31;19960;-58
2023/06/18 07:37:29;;;;;;;;;;;;;;;22.25;65.83;97512.38;18562604;32;20008;-57
2023/06/18 07:47:32;;;;;;;;;;;;;;;22.78;58.27;97505.94;18562071;32;20294;-58
2023/06/18 07:57:35;;;;;;;;;;;;;;;23.26;53.15;97495.72;18547574;32;20348;-58
2023/06/18 08:07:38;;;;;;;;;;;;;;;23.79;55.56;97497.25;18561685;32;20004;-58
2023/06/18 08:17:45;;;;;;;;;;;;;;;24.25;52.39;97497.44;18561175;32;20302;-57
2023/06/18 08:27:49;;;;;;;;;;;;;;;24.75;52.63;97494.84;18546798;32;20286;-58
2023/06/18 08:37:54;;;;;;;;;;;;;;;25.18;50.32;97489.22;18560512;32;20302;-58
2023/06/18 08:48:04;;;;;;;;;;;;;;;25.72;48.35;97487.22;18546667;32;19991;-58
2023/06/18 08:58:28;;;;;;;;;;;;;;;26.28;47.57;97474.47;18555070;32;19975;-58
2023/06/18 09:08:33;;;;;;;;;;;;;;;26.78;44.18;97463.13;18572334;32;19953;-57
2023/06/18 09:18:36;;;;;;;;;;;;;;;27.29;42.12;97450.44;18556913;31;19986;-58
2023/06/18 09:28:39;;;;;;;;;;;;;;;27.77;39.85;97449.53;18556975;32;19944;-58
2023/06/18 09:38:42;;;;;;;;;;;;;;;28.21;39.18;97433.81;18569965;31;19956;-58
2023/06/18 09:48:46;;;;;;;;;;;;;;;28.64;38.41;97436.72;18569390;32;19953;-58
2023/06/18 09:58:50;;;;;;;;;;;;;;;29.07;39.72;97435.91;18568907;32;19953;-58
2023/06/18 10:08:55;;;;;;;;;;;;;;;29.19;39.48;97437.47;18568277;32;19960;-58
2023/06/18 10:19:13;;;;;;;;;;;;;;;29.67;38.30;97437.00;18567614;32;20336;-57
2023/06/18 10:29:17;;;;;;;;;;;;;;;29.81;38.56;97436.12;18567189;32;19948;-57
2023/06/18 10:39:20;;;;;;;;;;;;;;;30.01;37.80;97428.12;18552197;31;20016;-58
2023/06/18 10:49:27;;;;;;;;;;;;;;;30.61;38.37;97424.59;18565926;32;19979;-58
2023/06/18 10:59:56;;;;;;;;;;;;;;;31.21;36.85;97409.31;18565201;32;19968;-57
2023/06/18 11:10:01;;;;;;;;;;;;;;;31.45;33.09;97389.91;18547489;31;20290;-57
2023/06/18 11:20:06;;;;;;;;;;;;;;;31.68;33.71;97380.88;18563705;32;20041;-58
2023/06/18 11:30:10;;;;;;;;;;;;;;;31.79;31.12;97369.56;18563525;32;19949;-57
2023/06/18 11:40:13;;;;;;;;;;;;;;;32.17;30.43;97365.88;18562645;32;19956;-57
2023/06/18 11:50:22;;;;;;;;;;;;;;;32.29;31.43;97353.28;18562954;32;19948;-57
2023/06/18 12:00:24;;;;;;;;;;;;;;;33.23;32.58;97346.88;18561914;32;19993;-57
2023/06/18 12:10:27;;;;;;;;;;;;;;;33.69;29.26;97331.16;18561226;32;19963;-56
2023/06/18 12:20:31;;;;;;;;;;;;;;;33.72;30.39;97332.31;18560972;32;19960;-57
2023/06/18 12:30:38;;;;;;;;;;;;;;;32.98;29.78;97319.38;18566589;32;20016;-57
2023/06/18 12:40:48;;;;;;;;;;;;;;;33.62;30.15;97314.50;18573599;31;20005;-57
2023/06/18 12:50:52;;;;;;;;;;;;;;;34.41;30.41;97307.12;18573247;32;20026;-57
2023/06/18 13:00:58;;;;;;;;;;;;;;;34.41;29.13;97298.69;18572193;31;19956;-57
2023/06/18 13:11:03;;;;;;;;;;;;;;;33.57;31.10;97292.59;18572385;32;20217;-57
2023/06/18 13:21:08;;;;;;;;;;;;;;;34.06;31.28;97291.91;18571544;32;19964;-57
2023/06/18 13:31:11;;;;;;;;;;;;;;;35.49;28.78;97283.00;18570847;32;19980;-57
2023/06/18 13:41:14;;;;;;;;;;;;;;;36.09;25.34;97280.31;18569214;32;20321;-58
2023/06/18 13:51:17;;;;;;;;;;;;;;;36.96;25.71;97272.59;18569326;31;19980;-57
2023/06/18 14:01:20;;;;;;;;;;;;;;;37.43;22.68;97265.25;18568992;32;19991;-57
2023/06/18 14:11:23;;;;;;;;;;;;;;;36.23;25.87;97261.41;18568362;32;19948;-58
2023/06/18 14:21:25;;;;;;;;;;;;;;;36.69;26.64;97253.41;18567668;32;20249;-57
2023/06/18 14:31:29;;;;;;;;;;;;;;;36.16;29.24;97256.00;18567002;32;19961;-57
2023/06/18 14:41:32;;;;;;;;;;;;;;;34.69;33.45;97261.91;18566064;32;19953;-57
2023/06/18 14:51:36;;;;;;;;;;;;;;;33.48;38.60;97255.94;18564913;32;19960;-57
2023/06/18 15:01:40;;;;;;;;;;;;;;;33.10;45.13;97227.09;18564731;32;19956;-56
2023/06/18 15:11:49;;;;;;;;;;;;;;;33.11;43.04;97237.06;18564818;32;20246;-56
2023/06/18 15:21:54;;;;;;;;;;;;;;;32.28;41.96;97239.84;18564310;32;20253;-56
2023/06/18 15:31:57;;;;;;;;;;;;;;;31.41;45.54;97264.25;18536722;32;19993;-54
2023/06/18 15:42:00;;;;;;;;;;;;;;;30.22;43.27;97337.97;18562465;32;20009;-57
2023/06/18 15:52:04;;;;;;;;;;;;;;;28.67;46.13;97348.87;18562389;32;20368;-57
2023/06/18 16:02:09;;;;;;;;;;;;;;;27.19;53.54;97365.13;18561445;32;19981;-56
2023/06/18 16:12:12;;;;;;;;;;;;;;;25.69;84.29;97344.00;18561371;32;20486;-54
2023/06/18 16:22:15;;;;;;;;;;;;;;;24.57;100.00;97309.31;18561391;32;19971;-56
2023/06/18 16:32:19;;;;;;;;;;;;;;;23.97;100.00;97285.06;18560848;32;19965;-56
2023/06/18 16:42:22;;;;;;;;;;;;;;;23.95;100.00;97282.63;18560155;32;19996;-55
2023/06/18 16:52:25;;;;;;;;;;;;;;;23.98;100.00;97300.44;18560603;32;19948;-55
2023/06/18 17:02:31;;;;;;;;;;;;;;;23.82;100.00;97304.09;18559850;32;19971;-56
2023/06/18 17:12:33;;;;;;;;;;;;;;;23.61;100.00;97315.53;18545779;32;19968;-56
2023/06/18 17:22:36;;;;;;;;;;;;;;;23.63;100.00;97312.41;18571117;32;20337;-56
2023/06/18 17:32:39;;;;;;;;;;;;;;;23.58;100.00;97302.44;18570668;32;19948;-54
2023/06/18 17:42:42;;;;;;;;;;;;;;;23.34;100.00;97300.81;18542677;32;20254;-55
2023/06/18 17:52:45;;;;;;;;;;;;;;;23.08;100.00;97309.69;18555400;32;20276;-56
2023/06/18 18:02:49;;;;;;;;;;;;;;;22.68;100.00;97308.84;18568848;32;20047;-56
2023/06/18 18:12:52;;;;;;;;;;;;;;;22.26;100.00;97298.38;18568434;32;20055;-56
2023/06/18 18:22:55;;;;;;;;;;;;;;;21.97;100.00;97303.97;18567625;31;19991;-56
2023/06/18 18:32:58;;;;;;;;;;;;;;;21.86;100.00;97313.91;18567701;32;19961;-56
2023/06/18 18:43:01;;;;;;;;;;;;;;;21.85;100.00;97300.50;18566171;32;19996;-57
2023/06/18 18:53:04;;;;;;;;;;;;;;;21.69;100.00;97293.00;18566436;32;19968;-56
2023/06/18 19:03:06;;;;;;;;;;;;;;;21.52;100.00;97296.06;18565225;32;19987;-55
2023/06/18 19:13:10;;;;;;;;;;;;;;;21.14;100.00;97304.47;18564492;31;19999;-56
2023/06/18 19:23:13;;;;;;;;;;;;;;;20.75;100.00;97306.84;18564031;32;20001;-57
2023/06/18 19:33:17;;;;;;;;;;;;;;;20.44;100.00;97318.41;18563418;32;19948;-57
2023/06/18 19:43:20;;;;;;;;;;;;;;;20.16;100.00;97327.31;18548255;32;19964;-56
2023/06/18 19:53:22;;;;;;;;;;;;;;;19.93;100.00;97337.91;18548066;32;20006;-56
2023/06/18 20:03:25;;;;;;;;;;;;;;;19.85;100.00;97347.81;18534541;32;19967;-56
2023/06/18 20:13:27;;;;;;;;;;;;;;;19.77;100.00;97354.19;18561440;32;19992;-57
2023/06/18 20:23:32;;;;;;;;;;;;;;;19.57;100.00;97370.34;18561018;32;20317;-56
2023/06/18 20:33:35;;;;;;;;;;;;;;;19.34;100.00;97367.16;18560707;32;19961;-56
2023/06/18 20:43:38;;;;;;;;;;;;;;;19.20;100.00;97361.94;18560237;32;19978;-56
2023/06/18 20:53:41;;;;;;;;;;;;;;;19.02;100.00;97372.25;18569111;32;20040;-56
2023/06/18 21:03:46;;;;;;;;;;;;;;;18.87;100.00;97372.78;18557870;31;19967;-56
2023/06/18 21:13:49;;;;;;;;;;;;;;;18.68;100.00;97371.28;18572175;32;19971;-56
2023/06/18 21:23:51;;;;;;;;;;;;;;;18.53;100.00;97363.63;18571402;32;19952;-55
2023/06/18 21:33:54;;;;;;;;;;;;;;;18.40;100.00;97379.13;18556631;32;19953;-56
2023/06/18 21:43:56;;;;;;;;;;;;;;;18.23;100.00;97386.28;18570225;32;19961;-56
2023/06/18 21:53:59;;;;;;;;;;;;;;;18.16;100.00;97387.91;18569605;32;19963;-55
2023/06/18 22:04:01;;;;;;;;;;;;;;;18.05;100.00;97392.94;18568397;32;19963;-57
2023/06/18 22:14:03;;;;;;;;;;;;;;;17.95;100.00;97386.69;18554429;32;19957;-56
2023/06/18 22:24:06;;;;;;;;;;;;;;;17.91;100.00;97388.47;18567627;32;19952;-57
2023/06/18 22:34:08;;;;;;;;;;;;;;;17.79;100.00;97400.03;18567122;32;19975;-57
2023/06/18 22:44:10;;;;;;;;;;;;;;;17.79;100.00;97404.72;18566401;32;20275;-57
2023/06/18 22:54:13;;;;;;;;;;;;;;;17.79;100.00;97401.97;18565691;31;20379;-57
2023/06/18 23:04:15;;;;;;;;;;;;;;;17.79;100.00;97410.19;18565203;32;19952;-57
2023/06/18 23:14:18;;;;;;;;;;;;;;;17.77;100.00;97409.69;18564734;32;20270;-57
2023/06/18 23:24:20;;;;;;;;;;;;;;;17.81;100.00;97418.06;18563904;32;20332;-57
2023/06/18 23:34:26;;;;;;;;;;;;;;;17.88;100.00;97430.13;18563517;32;20011;-57
2023/06/18 23:44:28;;;;;;;;;;;;;;;17.97;100.00;97449.28;18562551;32;20016;-56
2023/06/18 23:54:31;;;;;;;;;;;;;;;18.06;100.00;97468.41;18562359;32;20012;-57
